Time;durP1;ratioP1;P1;durP2;ratioP2;P2;SDS_P1;SDS_P2;PMS_P1;PMS_P2;Temp;Humidity;BMP_temperature;BMP_pressure;BME280_temperature;BME280_humidity;BME280_pressure;Samples;Min_cycle;Max_cycle;Signal;HPM_P1;HPM_P2
2022/03/29 00:01:57;;;;;;;37.53;32.70;;;12.90;89.80;;;;;;4960819;28;20037;-88
2022/03/29 00:04:23;;;;;;;41.85;36.63;;;12.90;89.40;;;;;;4960396;28;20035;-90
2022/03/29 00:06:49;;;;;;;37.45;32.22;;;12.80;89.40;;;;;;4960118;28;20043;-91
2022/03/29 00:09:15;;;;;;;47.58;38.80;;;12.80;89.50;;;;;;4955763;28;20031;-91
2022/03/29 00:11:41;;;;;;;49.88;41.97;;;12.80;89.00;;;;;;4959786;28;20035;-91
2022/03/29 00:14:07;;;;;;;51.40;44.65;;;12.70;88.60;;;;;;4955489;29;20039;-88
2022/03/29 00:16:33;;;;;;;55.80;47.55;;;12.40;89.00;;;;;;4952338;29;20118;-89
2022/03/29 00:18:59;;;;;;;55.13;46.20;;;12.10;89.80;;;;;;4959544;29;20042;-91
2022/03/29 00:21:25;;;;;;;51.22;45.70;;;11.90;90.50;;;;;;4958270;28;20035;-91
2022/03/29 00:23:51;;;;;;;55.50;45.80;;;11.80;91.00;;;;;;4958601;28;20070;-90
2022/03/29 00:26:17;;;;;;;50.97;45.47;;;11.70;91.10;;;;;;4935797;29;20079;-86
2022/03/29 00:28:43;;;;;;;54.35;47.55;;;11.70;91.30;;;;;;4929621;29;20067;-86
2022/03/29 00:31:10;;;;;;;48.72;38.75;;;11.60;91.50;;;;;;4937806;29;20027;-83
2022/03/29 00:33:36;;;;;;;51.85;45.78;;;11.70;91.40;;;;;;4925287;29;20053;-90
2022/03/29 00:36:02;;;;;;;55.67;46.83;;;11.70;91.10;;;;;;4938252;29;20047;-89
2022/03/29 00:38:28;;;;;;;54.78;47.83;;;11.70;91.30;;;;;;4929980;29;20032;-89
2022/03/29 00:40:55;;;;;;;55.45;49.10;;;11.60;91.40;;;;;;4938492;29;20079;-89
2022/03/29 00:43:21;;;;;;;61.33;49.85;;;11.50;91.50;;;;;;4924774;29;20035;-90
2022/03/29 00:45:47;;;;;;;57.85;50.00;;;11.40;91.60;;;;;;4938257;29;20047;-91
2022/03/29 00:48:13;;;;;;;47.55;42.35;;;11.40;91.70;;;;;;4938562;29;20036;-88
2022/03/29 00:50:40;;;;;;;52.35;46.75;;;11.50;91.50;;;;;;4925640;29;20043;-88
2022/03/29 00:53:08;;;;;;;55.17;48.13;;;11.50;91.40;;;;;;4938125;29;20046;-88
2022/03/29 00:55:34;;;;;;;50.38;43.03;;;11.50;91.50;;;;;;4936603;29;20072;-86
2022/03/29 00:58:04;;;;;;;54.80;45.97;;;11.40;91.30;;;;;;4920908;29;20574;-86
2022/03/29 01:00:31;;;;;;;55.17;46.83;;;11.50;91.20;;;;;;4936966;29;20028;-86
2022/03/29 01:02:58;;;;;;;58.85;47.50;;;11.50;91.20;;;;;;4937098;29;20039;-86
2022/03/29 01:05:26;;;;;;;54.15;45.60;;;11.50;91.10;;;;;;4921056;29;20126;-86
2022/03/29 01:07:57;;;;;;;53.15;44.08;;;11.40;91.50;;;;;;4931364;29;20064;-86
2022/03/29 01:10:24;;;;;;;49.30;43.10;;;11.40;91.60;;;;;;4937133;29;20384;-88
2022/03/29 01:12:50;;;;;;;53.10;45.83;;;11.30;91.60;;;;;;4937422;29;20032;-88
2022/03/29 01:15:18;;;;;;;50.92;43.28;;;11.30;91.40;;;;;;4920341;29;20039;-88
2022/03/29 01:17:45;;;;;;;52.00;45.05;;;11.30;91.30;;;;;;4937374;29;20639;-85
2022/03/29 01:20:13;;;;;;;49.65;44.03;;;11.30;91.10;;;;;;4925950;29;20536;-86
2022/03/29 01:22:50;;;;;;;51.97;44.90;;;11.30;91.00;;;;;;4925815;29;20044;-87
2022/03/29 01:25:21;;;;;;;50.05;42.08;;;11.30;90.80;;;;;;4929468;29;20047;-86
2022/03/29 01:27:49;;;;;;;50.53;38.65;;;11.30;90.80;;;;;;4955527;29;20503;-86
2022/03/29 01:30:15;;;;;;;49.40;42.58;;;11.40;90.70;;;;;;4939018;29;20047;-86
2022/03/29 01:32:45;;;;;;;47.47;42.25;;;11.40;90.60;;;;;;4956504;29;20122;-86
2022/03/29 01:35:12;;;;;;;;;;;11.30;90.80;;;;;;4956578;28;20073;-87
2022/03/29 01:37:38;;;;;;;41.50;35.50;;;11.20;90.60;;;;;;4951761;29;19910;-84
2022/03/29 01:40:13;;;;;;;43.72;37.92;;;11.30;90.50;;;;;;4954475;29;20174;-86
2022/03/29 01:42:43;;;;;;;44.17;37.15;;;11.40;90.20;;;;;;4955913;29;20050;-86
2022/03/29 01:45:10;;;;;;;49.78;40.60;;;11.40;90.10;;;;;;4955826;28;20046;-87
2022/03/29 01:47:35;;;;;;;46.72;40.55;;;11.30;90.00;;;;;;4956234;29;20039;-87
2022/03/29 01:50:01;;;;;;;42.25;37.78;;;11.30;89.60;;;;;;4956155;29;20065;-87
2022/03/29 01:52:27;;;;;;;41.13;36.65;;;11.10;90.20;;;;;;4950995;28;20046;-88
2022/03/29 01:54:53;;;;;;;44.05;39.38;;;11.20;89.90;;;;;;4956003;29;20050;-87
2022/03/29 01:57:26;;;;;;;40.70;36.17;;;11.10;90.00;;;;;;4950043;29;20039;-86
2022/03/29 02:02:35;;;;;;;47.97;41.65;;;10.90;90.20;;;;;;4956902;29;20070;-85
2022/03/29 02:05:01;;;;;;;43.63;36.85;;;10.70;90.60;;;;;;4956248;29;20477;-85
2022/03/29 02:07:32;;;;;;;39.65;35.47;;;10.60;91.00;;;;;;4959683;28;20046;-86
2022/03/29 02:09:58;;;;;;;45.10;35.65;;;10.60;90.90;;;;;;4959431;28;20041;-87
2022/03/29 02:12:23;;;;;;;45.70;40.78;;;10.60;91.10;;;;;;4960924;28;20063;-88
2022/03/29 02:14:49;;;;;;;42.22;37.72;;;10.70;90.80;;;;;;4952585;29;20071;-87
2022/03/29 02:17:15;;;;;;;38.40;34.20;;;10.60;91.00;;;;;;4958434;29;20448;-88
2022/03/29 02:19:40;;;;;;;40.47;33.58;;;10.60;90.90;;;;;;4958082;29;20031;-87
2022/03/29 02:22:06;;;;;;;39.70;34.40;;;10.60;90.80;;;;;;4958611;29;20037;-87
2022/03/29 02:24:32;;;;;;;35.70;31.90;;;10.70;90.40;;;;;;4958769;28;20114;-87
2022/03/29 02:26:58;;;;;;;41.00;36.47;;;10.70;90.40;;;;;;4950297;29;20052;-86
2022/03/29 02:29:23;;;;;;;37.20;33.22;;;10.70;90.10;;;;;;4959384;28;20035;-87
2022/03/29 02:31:49;;;;;;;39.15;34.92;;;10.70;90.00;;;;;;4957956;28;20476;-86
2022/03/29 02:34:39;;;;;;;39.92;34.92;;;10.60;90.00;;;;;;4959570;29;20038;-87
2022/03/29 02:37:05;;;;;;;41.05;33.72;;;10.50;90.40;;;;;;4959448;29;20463;-83
2022/03/29 02:39:31;;;;;;;43.35;38.13;;;10.60;90.20;;;;;;4958795;29;20050;-83
2022/03/29 02:41:57;;;;;;;47.95;40.03;;;10.60;90.10;;;;;;4958796;29;20122;-87
2022/03/29 02:44:22;;;;;;;39.85;34.88;;;10.60;90.40;;;;;;4957888;28;20565;-86
2022/03/29 02:46:48;;;;;;;40.95;33.65;;;10.50;90.60;;;;;;4951439;29;20043;-85
2022/03/29 02:49:14;;;;;;;42.05;35.33;;;10.70;90.30;;;;;;4941409;29;20487;-86
2022/03/29 02:51:40;;;;;;;44.20;35.67;;;10.80;90.10;;;;;;4959189;29;20464;-86
2022/03/29 02:54:05;;;;;;;45.70;35.63;;;10.90;90.00;;;;;;4959282;29;20043;-86
2022/03/29 02:56:31;;;;;;;48.42;38.92;;;10.90;89.90;;;;;;4942134;29;20036;-86
2022/03/29 02:58:57;;;;;;;48.92;38.75;;;10.80;90.30;;;;;;4959353;29;20487;-87
2022/03/29 03:01:23;;;;;;;45.40;35.85;;;10.80;90.40;;;;;;4959694;29;20035;-87
2022/03/29 03:03:48;;;;;;;50.40;40.33;;;10.90;90.30;;;;;;4941791;29;20047;-86
2022/03/29 03:06:14;;;;;;;50.85;39.38;;;10.90;90.20;;;;;;4940910;29;20122;-84
2022/03/29 03:08:40;;;;;;;53.63;41.90;;;11.00;90.20;;;;;;4958877;29;20070;-86
2022/03/29 03:11:06;;;;;;;49.92;40.95;;;11.00;90.10;;;;;;4958610;29;20067;-86
2022/03/29 03:13:33;;;;;;;53.75;40.83;;;10.90;90.40;;;;;;4941204;29;20050;-86
2022/03/29 03:15:58;;;;;;;52.75;42.25;;;10.90;90.20;;;;;;4941387;29;20039;-86
2022/03/29 03:18:24;;;;;;;54.47;43.22;;;10.90;90.50;;;;;;4941218;29;20035;-89
2022/03/29 03:20:50;;;;;;;48.92;40.40;;;10.90;90.20;;;;;;4958984;29;20035;-90
2022/03/29 03:23:15;;;;;;;55.13;46.65;;;11.00;90.10;;;;;;4942406;29;20098;-93
2022/03/29 03:25:41;;;;;;;47.63;40.75;;;11.00;89.80;;;;;;4942472;29;20071;-91
2022/03/29 03:28:07;;;;;;;52.15;42.45;;;11.00;90.20;;;;;;4959156;29;20039;-89
2022/03/29 03:30:33;;;;;;;58.30;45.30;;;11.10;90.00;;;;;;4959210;28;20042;-88
2022/03/29 03:32:59;;;;;;;49.65;42.13;;;11.10;90.10;;;;;;4949294;29;20043;-90
2022/03/29 03:35:25;;;;;;;58.45;49.33;;;11.00;90.40;;;;;;4957729;29;20061;-91
2022/03/29 03:37:51;;;;;;;54.63;45.58;;;11.00;90.30;;;;;;4958787;28;20028;-89
2022/03/29 03:40:17;;;;;;;56.58;47.13;;;10.90;90.70;;;;;;4958725;28;20035;-91
2022/03/29 03:42:43;;;;;;;57.97;46.95;;;10.90;90.50;;;;;;4941700;29;20142;-91
2022/03/29 03:45:09;;;;;;;48.50;41.63;;;10.80;90.90;;;;;;4958739;29;20063;-91
2022/03/29 03:47:36;;;;;;;57.90;47.83;;;11.00;90.90;;;;;;4958448;28;20035;-88
2022/03/29 03:50:02;;;;;;;57.28;47.95;;;11.00;90.50;;;;;;4940780;28;20042;-87
2022/03/29 03:52:28;;;;;;;53.53;46.05;;;11.10;90.50;;;;;;4957949;28;20031;-86
2022/03/29 03:54:56;;;;;;;52.72;43.30;;;11.10;90.60;;;;;;4957838;28;20578;-88
2022/03/29 03:57:22;;;;;;;50.53;40.13;;;11.00;90.60;;;;;;4958374;28;20036;-88
2022/03/29 03:59:50;;;;;;;61.67;49.22;;;11.10;90.60;;;;;;4941097;29;20040;-86
2022/03/29 04:02:16;;;;;;;58.28;49.88;;;11.10;90.60;;;;;;4957544;29;20115;-85
2022/03/29 04:04:41;;;;;;;59.42;49.53;;;11.00;90.90;;;;;;4957434;29;20079;-84
2022/03/29 04:07:07;;;;;;;53.03;44.25;;;11.00;91.10;;;;;;4957049;29;20047;-86
2022/03/29 04:09:36;;;;;;;48.92;41.00;;;11.00;91.10;;;;;;4941589;29;20047;-85
2022/03/29 04:12:04;;;;;;;56.97;46.72;;;11.10;90.70;;;;;;4939180;29;20031;-83
2022/03/29 04:14:29;;;;;;;51.05;41.42;;;11.10;90.70;;;;;;4956362;29;20047;-84
2022/03/29 04:16:55;;;;;;;46.92;38.38;;;11.10;90.70;;;;;;4956704;28;20046;-84
2022/03/29 04:19:21;;;;;;;58.88;45.65;;;11.10;90.70;;;;;;4939515;29;20376;-83
2022/03/29 04:21:46;;;;;;;47.20;39.67;;;11.20;90.60;;;;;;4956638;28;20047;-86
2022/03/29 04:24:13;;;;;;;56.28;44.03;;;11.10;90.90;;;;;;4956211;28;20031;-84
2022/03/29 04:26:39;;;;;;;52.50;44.38;;;11.20;90.80;;;;;;4939325;29;20415;-84
2022/03/29 04:29:05;;;;;;;55.05;46.47;;;11.20;90.90;;;;;;4947111;28;20038;-84
2022/03/29 04:31:31;;;;;;;55.55;42.70;;;11.20;90.80;;;;;;4938667;29;20039;-85
2022/03/29 04:34:00;;;;;;;61.72;49.03;;;11.30;90.90;;;;;;4956405;29;20188;-85
2022/03/29 04:36:27;;;;;;;66.82;53.33;;;11.20;91.10;;;;;;4942384;29;20050;-86
2022/03/29 04:38:53;;;;;;;60.42;48.47;;;11.20;91.20;;;;;;4957648;29;20530;-86
2022/03/29 04:41:20;;;;;;;57.88;47.75;;;11.10;91.40;;;;;;4957377;28;20039;-85
2022/03/29 04:43:46;;;;;;;64.78;52.10;;;11.20;91.40;;;;;;4955956;28;20031;-86
2022/03/29 04:46:12;;;;;;;57.38;45.17;;;11.20;91.50;;;;;;4956809;29;20067;-87
2022/03/29 04:48:38;;;;;;;63.40;51.25;;;11.20;91.60;;;;;;4946813;29;20112;-89
2022/03/29 04:51:11;;;;;;;52.67;45.25;;;11.30;91.30;;;;;;5071486;28;20382;-87
2022/03/29 04:53:37;;;;;;;54.15;43.03;;;11.30;91.50;;;;;;5056702;28;20071;-87
2022/03/29 04:56:04;;;;;;;53.80;41.92;;;11.40;91.30;;;;;;5051741;28;20037;-91
2022/03/29 04:58:30;;;;;;;61.90;47.80;;;11.50;91.00;;;;;;5052753;28;20025;-88
2022/03/29 05:00:58;;;;;;;58.47;46.92;;;11.50;91.00;;;;;;5066695;28;20473;-89
2022/03/29 05:03:25;;;;;;;60.67;48.20;;;11.50;90.90;;;;;;5053758;28;20022;-87
2022/03/29 05:05:51;;;;;;;57.67;48.08;;;11.50;90.70;;;;;;5052715;28;20061;-85
2022/03/29 05:08:16;;;;;;;57.95;46.20;;;11.60;90.80;;;;;;5071974;28;20028;-88
2022/03/29 05:10:42;;;;;;;54.08;46.08;;;11.60;90.50;;;;;;5052803;28;20421;-88
2022/03/29 05:13:09;;;;;;;59.60;47.78;;;11.70;90.50;;;;;;5052302;28;20017;-88
2022/03/29 05:15:35;;;;;;;64.45;49.55;;;11.70;90.50;;;;;;5051508;28;20021;-88
2022/03/29 05:18:02;;;;;;;70.45;57.33;;;11.70;90.60;;;;;;5061707;28;20069;-88
2022/03/29 05:20:27;;;;;;;64.40;54.42;;;11.40;90.70;;;;;;5069165;28;20033;-88
2022/03/29 05:22:57;;;;;;;75.47;58.78;;;11.30;91.20;;;;;;5063277;28;20021;-88
2022/03/29 05:25:25;;;;;;;68.85;55.30;;;11.00;91.50;;;;;;5058027;28;20047;-89
2022/03/29 05:27:52;;;;;;;65.90;54.08;;;11.00;92.00;;;;;;5031874;28;20538;-89
2022/03/29 05:30:19;;;;;;;72.15;58.72;;;11.00;92.00;;;;;;5055347;28;20055;-87
2022/03/29 05:32:45;;;;;;;67.95;54.13;;;10.90;92.00;;;;;;5051496;28;20033;-86
2022/03/29 05:35:11;;;;;;;76.38;58.15;;;10.80;92.30;;;;;;5036376;28;20521;-85
2022/03/29 05:37:40;;;;;;;72.80;56.20;;;10.80;92.50;;;;;;5057278;28;20358;-86
2022/03/29 05:40:07;;;;;;;61.05;50.85;;;10.70;92.80;;;;;;5059010;28;20049;-86
2022/03/29 05:42:43;;;;;;;65.95;53.15;;;10.80;92.60;;;;;;5069762;28;20048;-85
2022/03/29 05:45:11;;;;;;;66.78;54.28;;;10.90;92.40;;;;;;5043731;28;20091;-87
2022/03/29 05:50:21;;;;;;;53.08;43.35;;;10.90;92.30;;;;;;5050041;28;20048;-86
2022/03/29 05:52:48;;;;;;;59.90;47.05;;;11.10;92.30;;;;;;5052846;28;20021;-87
2022/03/29 05:55:13;;;;;;;65.07;51.22;;;11.20;92.00;;;;;;5059662;28;20028;-87
2022/03/29 05:57:39;;;;;;;66.20;51.42;;;11.40;91.30;;;;;;5057271;28;20293;-89
2022/03/29 06:00:10;;;;;;;64.20;53.08;;;11.30;91.50;;;;;;5059299;28;20038;-87
2022/03/29 06:02:36;;;;;;;68.18;55.03;;;11.20;91.60;;;;;;5024620;28;20144;-84
2022/03/29 06:05:03;;;;;;;68.45;54.92;;;11.10;91.80;;;;;;5039266;28;20033;-83
2022/03/29 06:07:41;;;;;;;66.68;55.25;;;11.00;92.10;;;;;;5040437;28;20037;-84
2022/03/29 06:10:09;;;;;;;64.00;50.63;;;10.90;92.60;;;;;;5070676;28;20036;-84
2022/03/29 06:12:38;;;;;;;61.40;46.00;;;11.00;92.30;;;;;;5056519;28;20021;-83
2022/03/29 06:15:05;;;;;;;56.47;42.70;;;11.10;92.20;;;;;;5044044;28;20064;-86
2022/03/29 06:17:31;;;;;;;55.58;42.28;;;11.40;91.90;;;;;;5042407;28;20025;-89
2022/03/29 06:22:48;;;;;;;53.15;43.58;;;11.70;91.10;;;;;;5034932;28;20118;-85
2022/03/29 06:25:17;;;;;;;58.88;43.60;;;11.80;90.60;;;;;;5026485;28;20539;-84
2022/03/29 06:27:43;;;;;;;56.13;43.40;;;11.90;90.50;;;;;;5030279;28;20033;-83
2022/03/29 06:30:10;;;;;;;51.50;42.25;;;12.00;90.30;;;;;;5035597;28;20092;-84
2022/03/29 06:32:49;;;;;;;55.35;44.20;;;12.10;89.80;;;;;;5032185;28;20045;-84
2022/03/29 06:35:18;;;;;;;56.30;45.72;;;12.10;90.00;;;;;;5032131;28;20028;-85
2022/03/29 06:37:44;;;;;;;61.75;51.13;;;12.20;89.70;;;;;;5043544;28;20082;-84
2022/03/29 06:40:10;;;;;;;64.70;51.83;;;12.10;89.50;;;;;;5041452;28;20038;-85
2022/03/29 06:42:36;;;;;;;57.63;48.45;;;12.10;89.60;;;;;;5032395;28;20031;-85
2022/03/29 06:45:03;;;;;;;53.90;46.17;;;12.00;89.70;;;;;;5034237;28;20112;-84
2022/03/29 06:47:29;;;;;;;59.90;46.95;;;12.10;89.90;;;;;;5034205;28;20087;-84
2022/03/29 06:49:54;;;;;;;59.55;46.47;;;12.20;89.50;;;;;;5052775;28;20053;-84
2022/03/29 06:55:06;;;;;;;62.65;50.33;;;12.20;89.10;;;;;;5045095;28;20509;-85
2022/03/29 06:57:32;;;;;;;59.42;48.85;;;12.20;89.20;;;;;;5034447;28;20450;-86
2022/03/29 06:59:58;;;;;;;54.38;47.10;;;12.20;89.00;;;;;;5035702;28;20129;-86
2022/03/29 07:02:24;;;;;;;52.42;42.10;;;12.30;88.80;;;;;;5035588;28;20036;-87
2022/03/29 07:04:51;;;;;;;46.08;40.13;;;12.40;89.00;;;;;;5035722;28;20469;-86
2022/03/29 07:07:17;;;;;;;49.80;42.15;;;12.50;88.50;;;;;;5033043;28;20036;-87
2022/03/29 07:12:31;;;;;;;80.00;64.32;;;12.70;87.70;;;;;;5033924;28;20033;-85
2022/03/29 07:15:01;;;;;;;61.80;49.47;;;12.60;87.90;;;;;;5034536;28;20040;-87
2022/03/29 07:17:27;;;;;;;64.55;49.97;;;12.70;88.10;;;;;;5034595;28;20026;-83
2022/03/29 07:19:53;;;;;;;68.22;49.33;;;12.70;87.50;;;;;;5033402;28;20041;-85
2022/03/29 07:22:23;;;;;;;54.63;46.92;;;12.60;87.70;;;;;;5033081;28;20040;-85
2022/03/29 07:24:50;;;;;;;50.85;43.22;;;12.50;87.40;;;;;;5028884;28;20140;-84
2022/03/29 07:27:16;;;;;;;61.30;50.78;;;12.60;87.70;;;;;;5025052;28;20038;-84
2022/03/29 07:29:42;;;;;;;57.00;50.03;;;12.60;86.80;;;;;;5039719;28;20037;-85
2022/03/29 07:32:08;;;;;;;61.35;51.63;;;12.40;87.50;;;;;;5032932;28;20043;-85
2022/03/29 07:34:35;;;;;;;67.95;51.95;;;12.30;87.60;;;;;;5034424;28;20025;-85
2022/03/29 07:37:03;;;;;;;58.45;49.80;;;12.30;87.80;;;;;;5033353;28;20033;-85
2022/03/29 07:39:29;;;;;;;67.45;53.60;;;12.20;88.20;;;;;;5033304;28;20026;-85
2022/03/29 07:41:56;;;;;;;65.88;54.20;;;12.20;88.00;;;;;;5034073;28;20120;-85
2022/03/29 07:44:22;;;;;;;60.75;46.90;;;12.10;88.50;;;;;;5032546;28;20021;-86
2022/03/29 07:46:48;;;;;;;64.47;49.78;;;12.00;88.60;;;;;;5034138;28;20100;-86
2022/03/29 07:49:13;;;;;;;62.78;48.78;;;12.10;88.00;;;;;;5033726;28;20052;-86
2022/03/29 07:51:39;;;;;;;58.72;46.20;;;12.10;87.80;;;;;;5032382;28;20022;-85
2022/03/29 07:54:05;;;;;;;59.95;48.53;;;12.10;87.40;;;;;;5033856;28;20056;-85
2022/03/29 07:56:31;;;;;;;59.08;46.33;;;12.20;87.60;;;;;;5032540;28;20374;-86
2022/03/29 07:58:57;;;;;;;53.78;43.60;;;12.20;87.50;;;;;;5035339;28;20048;-86
2022/03/29 08:01:23;;;;;;;58.40;46.63;;;12.40;86.80;;;;;;5033842;28;20040;-86
2022/03/29 08:03:49;;;;;;;59.35;45.63;;;12.50;86.40;;;;;;5032939;28;20026;-85
2022/03/29 08:06:15;;;;;;;57.85;47.58;;;12.50;86.00;;;;;;5033068;28;20036;-85
2022/03/29 08:08:41;;;;;;;60.15;46.55;;;12.60;85.60;;;;;;5033352;28;20021;-85
2022/03/29 08:11:08;;;;;;;54.38;44.53;;;12.50;85.00;;;;;;5033281;28;20100;-86
2022/03/29 08:13:34;;;;;;;48.35;40.97;;;12.60;85.10;;;;;;5033821;28;20105;-88
2022/03/29 08:16:01;;;;;;;46.13;38.28;;;12.70;84.90;;;;;;5033040;28;20025;-88
2022/03/29 08:18:28;;;;;;;51.00;39.03;;;12.90;84.60;;;;;;5033444;28;20049;-88
2022/03/29 08:20:54;;;;;;;47.97;38.40;;;13.00;83.50;;;;;;5031844;28;20499;-88
2022/03/29 08:23:23;;;;;;;46.90;39.67;;;13.20;83.30;;;;;;5048755;28;20026;-86
2022/03/29 08:25:49;;;;;;;47.30;41.47;;;13.20;82.50;;;;;;5032466;28;20064;-87
2022/03/29 08:28:15;;;;;;;52.28;43.28;;;13.30;82.20;;;;;;5033910;28;20029;-86
2022/03/29 08:30:42;;;;;;;50.00;44.53;;;13.40;82.10;;;;;;5036610;28;20079;-87
2022/03/29 08:33:08;;;;;;;48.65;41.70;;;13.40;81.50;;;;;;5050875;28;20025;-87
2022/03/29 08:35:37;;;;;;;46.40;39.92;;;13.40;82.10;;;;;;5032247;28;20034;-86
2022/03/29 08:38:02;;;;;;;48.22;40.08;;;13.60;82.00;;;;;;5012420;28;20121;-86
2022/03/29 08:40:28;;;;;;;44.60;37.58;;;13.70;80.90;;;;;;5042994;28;20060;-87
2022/03/29 08:42:58;;;;;;;44.80;39.03;;;13.70;80.80;;;;;;5052310;28;20067;-86
2022/03/29 08:45:31;;;;;;;43.28;34.33;;;13.90;80.70;;;;;;5052237;28;20456;-87
2022/03/29 08:48:00;;;;;;;38.63;33.00;;;13.90;79.90;;;;;;5085940;28;20020;-85
2022/03/29 08:50:36;;;;;;;43.15;36.53;;;13.90;80.10;;;;;;5053522;28;20076;-86
2022/03/29 08:53:03;;;;;;;38.60;34.55;;;14.10;79.60;;;;;;5032308;28;20029;-87
2022/03/29 08:55:29;;;;;;;43.08;35.70;;;14.20;78.60;;;;;;5033883;28;20060;-89
2022/03/29 08:57:55;;;;;;;38.78;34.55;;;14.10;78.40;;;;;;5031804;28;20018;-86
2022/03/29 09:00:23;;;;;;;38.08;31.00;;;14.20;78.40;;;;;;5033561;28;20034;-89
2022/03/29 09:02:50;;;;;;;39.53;32.17;;;14.30;78.10;;;;;;5033014;28;20030;-88
2022/03/29 09:05:21;;;;;;;36.78;32.05;;;14.40;78.10;;;;;;5032695;28;20030;-88
2022/03/29 09:07:54;;;;;;;37.75;30.30;;;14.40;77.80;;;;;;5032338;28;20021;-87
2022/03/29 09:10:40;;;;;;;34.05;30.00;;;14.50;77.00;;;;;;5031076;28;20045;-88
2022/03/29 09:13:24;;;;;;;39.78;32.03;;;14.50;76.80;;;;;;5032413;28;20021;-88
2022/03/29 09:15:55;;;;;;;32.63;27.73;;;14.60;77.40;;;;;;5023596;28;20026;-88
2022/03/29 09:18:22;;;;;;;30.70;26.75;;;14.70;77.20;;;;;;5032688;28;20030;-87
2022/03/29 09:21:11;;;;;;;32.53;29.02;;;14.80;77.40;;;;;;5044053;28;20021;-87
2022/03/29 09:23:37;;;;;;;35.85;30.60;;;15.10;76.40;;;;;;5030334;28;20389;-88
2022/03/29 09:26:03;;;;;;;32.60;26.75;;;15.10;75.70;;;;;;5032645;28;20038;-87
2022/03/29 09:28:34;;;;;;;29.05;25.55;;;15.20;76.00;;;;;;5033749;28;20112;-88
2022/03/29 09:31:00;;;;;;;30.55;27.33;;;15.40;75.10;;;;;;5031698;28;20533;-87
2022/03/29 09:33:34;;;;;;;38.72;29.05;;;15.40;75.10;;;;;;5032184;28;20022;-87
2022/03/29 09:36:10;;;;;;;28.38;25.05;;;15.50;74.10;;;;;;5034201;28;20057;-87
2022/03/29 09:38:41;;;;;;;30.35;26.40;;;15.50;73.90;;;;;;5037073;28;20091;-88
2022/03/29 09:41:29;;;;;;;40.00;31.75;;;15.60;74.30;;;;;;5036836;28;20029;-88
2022/03/29 09:44:02;;;;;;;35.17;25.77;;;15.60;73.60;;;;;;5041539;28;20026;-87
2022/03/29 09:46:29;;;;;;;32.58;26.40;;;15.60;73.90;;;;;;5036734;28;20021;-87
2022/03/29 09:49:03;;;;;;;33.47;28.45;;;15.70;73.30;;;;;;5039878;28;20091;-88
2022/03/29 09:51:29;;;;;;;33.72;27.70;;;15.70;73.40;;;;;;5053558;28;20405;-88
2022/03/29 09:53:57;;;;;;;34.05;28.73;;;15.80;73.50;;;;;;5057203;28;20021;-88
2022/03/29 09:56:26;;;;;;;35.08;28.92;;;15.80;73.40;;;;;;5040051;28;20036;-88
2022/03/29 09:59:10;;;;;;;28.23;25.27;;;15.80;73.70;;;;;;5035056;28;20030;-87
2022/03/29 10:01:57;;;;;;;28.92;24.67;;;16.00;74.10;;;;;;5035525;28;20033;-88
2022/03/29 10:04:25;;;;;;;30.95;25.80;;;16.30;72.30;;;;;;5036430;28;20024;-88
2022/03/29 10:06:54;;;;;;;31.10;24.85;;;16.40;72.50;;;;;;5036613;28;20524;-87
2022/03/29 10:09:26;;;;;;;27.27;23.50;;;16.60;71.60;;;;;;5043212;28;20033;-87
2022/03/29 10:11:55;;;;;;;33.85;27.05;;;16.70;71.50;;;;;;5037345;28;20359;-87
2022/03/29 10:14:22;;;;;;;31.73;25.27;;;16.70;71.20;;;;;;5047000;28;20035;-87
2022/03/29 10:16:50;;;;;;;33.55;25.75;;;16.60;71.10;;;;;;5037034;28;20050;-87
2022/03/29 10:19:19;;;;;;;30.65;25.33;;;16.60;71.70;;;;;;5054568;28;20029;-87
2022/03/29 10:21:46;;;;;;;31.95;24.30;;;16.70;71.40;;;;;;5045383;28;20033;-88
2022/03/29 10:24:17;;;;;;;30.63;25.35;;;16.80;70.70;;;;;;5045105;28;20020;-87
2022/03/29 10:26:45;;;;;;;29.38;23.50;;;16.60;70.70;;;;;;5048227;28;20112;-87
2022/03/29 10:29:11;;;;;;;30.77;25.30;;;16.60;71.50;;;;;;5054712;28;20021;-86
2022/03/29 10:31:55;;;;;;;31.50;28.10;;;16.50;71.00;;;;;;5055879;28;20032;-88
2022/03/29 10:34:26;;;;;;;33.40;28.42;;;16.50;71.80;;;;;;5056422;28;20055;-88
2022/03/29 10:37:10;;;;;;;26.63;22.33;;;16.30;72.10;;;;;;5057000;28;20029;-88
2022/03/29 10:39:54;;;;;;;27.30;22.30;;;16.30;72.60;;;;;;5056231;28;20036;-88
2022/03/29 10:42:36;;;;;;;26.63;22.08;;;16.50;72.30;;;;;;5019950;28;20176;-89
2022/03/29 10:45:12;;;;;;;26.13;20.48;;;16.50;72.40;;;;;;5041852;28;20478;-85
2022/03/29 10:47:39;;;;;;;24.77;17.45;;;16.70;72.70;;;;;;5031473;28;20489;-84
2022/03/29 10:50:07;;;;;;;21.00;15.52;;;17.00;72.00;;;;;;5032334;28;20120;-85
2022/03/29 10:52:40;;;;;;;20.80;16.33;;;17.40;71.20;;;;;;5021691;28;20037;-84
2022/03/29 10:55:21;;;;;;;19.23;14.98;;;17.60;69.70;;;;;;5013955;28;20433;-84
2022/03/29 10:58:12;;;;;;;23.33;16.63;;;17.80;68.70;;;;;;5037101;28;20128;-85
2022/03/29 11:00:41;;;;;;;21.90;13.90;;;17.70;68.70;;;;;;5038631;28;20405;-85
2022/03/29 11:03:23;;;;;;;25.23;15.80;;;17.80;69.10;;;;;;5029922;28;20029;-85
2022/03/29 11:06:08;;;;;;;17.75;14.30;;;17.80;68.20;;;;;;5034464;28;20102;-87
2022/03/29 11:09:07;;;;;;;27.83;14.90;;;17.70;68.80;;;;;;5035124;28;20417;-86
2022/03/29 11:11:40;;;;;;;20.88;13.90;;;17.80;68.40;;;;;;5019222;28;20083;-86
2022/03/29 11:14:28;;;;;;;19.55;14.13;;;17.70;68.80;;;;;;5032525;28;20037;-86
2022/03/29 11:17:09;;;;;;;23.98;14.73;;;17.60;68.50;;;;;;5044661;28;20030;-85
2022/03/29 11:19:46;;;;;;;17.55;12.52;;;17.50;68.90;;;;;;5033695;28;20033;-84
2022/03/29 11:22:31;;;;;;;21.45;14.65;;;17.40;69.00;;;;;;5044124;28;20032;-85
2022/03/29 11:25:05;;;;;;;19.63;12.68;;;17.30;69.90;;;;;;5038879;28;20079;-86
2022/03/29 11:27:33;;;;;;;18.98;12.10;;;17.40;70.70;;;;;;5048228;28;20025;-84
2022/03/29 11:30:01;;;;;;;15.07;10.57;;;17.50;69.60;;;;;;5040366;28;20037;-84
2022/03/29 11:32:27;;;;;;;16.45;10.82;;;17.60;69.50;;;;;;5036457;28;20477;-83
2022/03/29 11:34:58;;;;;;;18.27;13.18;;;17.80;68.40;;;;;;5047243;28;20067;-82
2022/03/29 11:37:32;;;;;;;20.58;12.63;;;17.80;67.80;;;;;;5049968;28;20037;-82
2022/03/29 11:40:01;;;;;;;19.05;11.40;;;17.70;68.20;;;;;;5038525;28;20474;-83
2022/03/29 11:42:53;;;;;;;19.55;12.75;;;17.80;68.50;;;;;;5031779;28;20026;-82
2022/03/29 11:45:23;;;;;;;17.33;11.63;;;17.90;67.00;;;;;;5027930;28;20073;-83
2022/03/29 18:56:59;;;;;;;64.03;51.90;;;14.50;84.40;;;;;;4846659;26;20048;-83
2022/03/29 18:59:24;;;;;;;61.35;51.75;;;14.40;84.70;;;;;;5048332;28;21654;-84
2022/03/29 19:01:52;;;;;;;61.97;48.72;;;14.20;85.90;;;;;;5032247;28;20045;-83
2022/03/29 19:04:19;;;;;;;59.88;46.03;;;14.20;85.70;;;;;;5050303;28;20033;-84
2022/03/29 19:06:45;;;;;;;62.33;46.38;;;14.20;86.30;;;;;;5050392;28;20056;-84
2022/03/29 19:09:13;;;;;;;57.35;48.53;;;14.30;85.90;;;;;;5049559;28;20536;-84
2022/03/29 19:11:39;;;;;;;63.08;51.53;;;14.10;87.10;;;;;;5050637;28;20036;-85
2022/03/29 19:14:06;;;;;;;55.63;46.45;;;14.00;87.50;;;;;;5046425;28;20033;-84
2022/03/29 19:16:32;;;;;;;58.15;47.50;;;14.00;87.60;;;;;;5033773;28;20063;-85
2022/03/29 19:18:58;;;;;;;49.97;44.58;;;14.00;87.80;;;;;;5050386;28;20064;-84
2022/03/29 19:21:43;;;;;;;59.95;52.47;;;14.00;87.90;;;;;;5033287;28;20560;-86
2022/03/29 19:24:09;;;;;;;53.92;45.65;;;14.00;88.10;;;;;;5031401;28;20047;-85
2022/03/29 19:26:41;;;;;;;57.22;47.08;;;14.00;88.30;;;;;;5031039;28;20051;-85
2022/03/29 19:29:16;;;;;;;66.18;52.85;;;14.10;88.30;;;;;;5049190;28;20519;-84
2022/03/29 19:31:49;;;;;;;56.17;47.38;;;14.00;88.50;;;;;;5046087;28;20380;-85
2022/03/29 19:34:15;;;;;;;50.15;42.08;;;14.00;88.80;;;;;;5040037;28;20451;-84
2022/03/29 19:36:41;;;;;;;56.97;46.65;;;14.10;88.60;;;;;;5031158;28;20061;-84
2022/03/29 19:39:44;;;;;;;64.10;52.25;;;14.10;88.30;;;;;;5051747;28;20029;-84
2022/03/29 19:42:23;;;;;;;62.47;48.08;;;14.00;88.40;;;;;;5051398;28;20082;-84
2022/03/29 19:45:09;;;;;;;68.72;52.72;;;13.90;89.00;;;;;;5046753;28;20090;-84
2022/03/29 19:47:38;;;;;;;55.03;46.42;;;13.90;88.90;;;;;;5051705;28;20079;-85
2022/03/29 19:50:16;;;;;;;58.60;47.17;;;13.90;89.20;;;;;;5047292;28;20041;-84
2022/03/29 19:52:44;;;;;;;61.80;50.17;;;13.90;88.60;;;;;;5034710;28;20045;-85
2022/03/29 19:55:10;;;;;;;56.05;47.38;;;13.80;89.00;;;;;;5024581;28;20508;-84
2022/03/29 19:57:37;;;;;;;67.20;54.05;;;13.80;89.00;;;;;;5039174;28;20069;-84
2022/03/29 20:00:06;;;;;;;56.33;47.47;;;13.80;89.10;;;;;;5039050;28;20098;-85